Tiempo atmosférico en la estación meteorológica de Piloña, Asturias (270 m.)



Fecha
DESCASC
Temp. máxima en grados centígrados (hora)
DESCASC
Temp. mínima en grados centígrados (hora)
DESCASC
Temp. media en grados centígrados
DESCASC
Racha de viento máxima en m/sg (hora)
DESCASC
Velocidad máxima media en intervalos de 10 minutos(hora)
DESCASC
Precipitaciones diarias en mm
DESCASC
Precipitaciones de 00:00 a 06:00 en mm
DESCASC
Precipitaciones de 06:00 a 12:00 en mm
DESCASC
Precipitaciones de 12:00 a 18:00 en mm
DESCASC
Precipitaciones de 18:00 a 24:00 en mm
DESCASC
18-01-2019 9.3 (16:10) 2.3 (04:10) 5.8 2.78 (09:10) 1.39 (21:20) 1.6 0 0 0.4 1.2
17-01-2019 10.6 (13:20) 3.8 (00:00) 7.2 5.83 (13:30) 3.33 (13:20) 7.8 5.2 0.6 1.6 0.4
16-01-2019 13.7 (15:20) -0.9 (-00:0) 6.4 5 (15:50) 2.22 (14:10) 2 0 0 0 2
15-01-2019 12.2 (15:00) -1.2 (-00:0) 5.5 3.33 (16:50) 1.67 (14:00) 0.2 0 0.2 0 0
14-01-2019 14 (15:00) 3.7 (00:00) 8.9 4.44 (15:10) 2.78 (15:30) 0 0 0 0 0
13-01-2019 13.5 (15:50) -0.2 (00:00) 6.6 3.33 (15:40) 1.67 (14:30) 0 0 0 0 0
12-01-2019 9.5 (14:30) 2.9 (00:00) 6.2 2.78 (08:20) 1.11 (13:10) 0 0 0 0 0
11-01-2019 6.2 (17:30) -2.5 (-00:0) 1.8 1.39 (22:20) 0.83 (22:20) 0 0 0 0 0
10-01-2019 9.1 (12:20) 1 (00:00) 5.1 7.22 (14:30) 3.61 (18:10) 1.4 1 0.4 0 0
09-01-2019 7.8 (16:30) 2 (00:00) 4.9 2.22 (03:20) 0.83 (02:20) 7.6 1.8 5 0.6 0.2
08-01-2019 10.8 (16:00) -2 (-00:0) 4.4 4.72 (14:20) 2.5 (14:20) 0 0 0 0 0
07-01-2019 9.1 (15:00) -3 (-00:0) 3.1 7.22 (16:10) 3.33 (16:10) 0 0 0 0 0
06-01-2019 11.2 (15:30) -3.6 (-00:0) 3.8 5 (17:10) 2.5 (17:00) 0 0 0 0 0
05-01-2019 13.7 (15:10) -4.3 (-00:0) 4.7 4.17 (14:30) 1.94 (15:00) 0 0 0 0 0
04-01-2019 12.1 (15:10) -2.8 (-00:0) 4.7 3.61 (17:30) 2.5 (17:40) 0 0 0 0 0
03-01-2019 9.8 (15:20) -0.1 (00:00) 4.9 6.11 (12:40) 3.61 (12:10) 0 0 0 0 0
02-01-2019 10.3 (15:20) 5.4 (00:00) 7.9 7.22 (15:20) 3.61 (15:20) 0 0 0 0 0
01-01-2019 11 (15:20) -0.3 (00:00) 5.3 3.89 (19:10) 1.67 (16:00) 0.2 0 0.2 0 0
31-12-2018 13.4 (15:10) -2.2 (-00:0) 5.6 4.17 (17:10) 2.22 (17:10) 0.2 0 0 0.2 0
30-12-2018 11.6 (15:20) 2 (00:00) 6.8 4.72 (14:10) 2.5 (14:00) 0 0 0 0 0
29-12-2018 11.7 (14:40) 6 (00:00) 8.8 5.56 (14:20) 3.33 (20:50) 0.6 0.6 0 0 0
28-12-2018 10.6 (16:10) 2.1 (00:00) 6.4 1.39 (11:40) 0.83 (09:00) 0 0 0 0 0
27-12-2018 16.6 (15:30) 0.5 (00:00) 8.6 3.89 (16:00) 1.94 (17:20) 0 0 0 0 0
26-12-2018 16.7 (16:40) 1.4 (00:00) 9.1 1.94 (14:00) 1.11 (14:00) 0 0 0 0 0
25-12-2018 14.3 (14:50) 2.9 (00:00) 8.6 1.94 (15:40) 1.11 (18:40) 0 0 0 0 0
24-12-2018 14.9 (15:40) 2.1 (07:10) 8.5 4.72 (15:20) 2.22 (15:20) 0 0 0 0 0
23-12-2018 15.8 (15:50) 4 (00:00) 9.9 2.22 (15:50) 0.83 (15:30) 0 0 0 0 0
22-12-2018 20 (15:10) 8.3 (00:00) 14.2 3.33 (10:40) 1.94 (16:40) 0 0 0 0 0
21-12-2018 17.9 (12:50) 8.9 (01:10) 13.4 5.28 (05:20) 2.22 (05:10) 0 0 0 0 0

Gráficas

Temp. máximas Temp. mínimas Temp. medias Precipitaciones Rachas de viento máximas Velocidades máximas media en intervalos de 10 minutos

Datos horarios

Fecha y hora oficial Temperatura (ºC) Velocidad del viento (km/h) Dirección del viento Racha (km/h) Dirección de racha Precipitación (mm) Presión (hPa) Tendencia (hPa) Humedad (%)
2019-01-19 23:00:00 7.5 3 Noroeste 9 Nordeste 1.8 -- -- 100
2019-01-19 22:00:00 7.4 6 Noroeste 17 Noroeste 2.8 -- -- 100
2019-01-19 21:00:00 7 2 Noroeste 5 Noroeste 0.6 -- -- 100
2019-01-19 20:00:00 7 0 Calma 5 Sudoeste 0.4 -- -- 99
2019-01-19 19:00:00 7.1 0 Calma 9 Este 2 -- -- 97
2019-01-19 18:00:00 6.7 4 Sudeste 10 Sudeste 1.6 -- -- 97
2019-01-19 17:00:00 7 6 Sudeste 15 Sudeste 1 -- -- 95
2019-01-19 16:00:00 7.1 6 Este 21 Este 1 -- -- 95
2019-01-19 15:00:00 6.9 9 Este 29 Nordeste 3 -- -- 95
2019-01-19 14:00:00 6.8 16 Este 28 Nordeste 3.4 -- -- 96
2019-01-19 13:00:00 7.1 3 Este 9 Este 2.4 -- -- 96
2019-01-19 12:00:00 6.7 4 Este 8 Nordeste 1 -- -- 100
2019-01-19 11:00:00 6.2 0 Calma 6 Este 0.2 -- -- 100
2019-01-19 10:00:00 5.6 4 Norte 6 Norte 0 -- -- 100
2019-01-19 09:00:00 5.5 0 Calma 6 Noroeste 0 -- -- 99
2019-01-19 08:00:00 5.6 0 Calma 4 Sudeste 0 -- -- 99
2019-01-19 07:00:00 6.2 0 Calma 8 Este 0 -- -- 97
2019-01-19 06:00:00 5.8 3 Noroeste 6 Noroeste 0 -- -- 99
2019-01-19 05:00:00 6.1 3 Noroeste 5 Noroeste 0 -- -- 100
2019-01-19 04:00:00 6.5 0 Calma 3 Noroeste 0.2 -- -- 100
2019-01-19 03:00:00 6.7 0 Calma 4 Noroeste 0 -- -- 100
2019-01-19 02:00:00 6.6 2 Noroeste 4 Noroeste 0.2 -- -- 100
2019-01-19 01:00:00 6.7 0 Calma 10 Noroeste 0.6 -- -- 99
2019-01-19 00:00:00 6.8 2 Oeste 8 Oeste 0 -- -- 99
2019-01-18 23:00:00 6.7 2 Oeste 6 Noroeste 0.2 -- -- 100
2019-01-18 22:00:00 7 2 Noroeste 9 Oeste 0.4 -- -- 99
2019-01-18 21:00:00 6.9 3 Noroeste 8 Oeste 0.4 -- -- 99
2019-01-18 20:00:00 7.1 3 Nordeste 6 Nordeste 0 -- -- 96
2019-01-18 19:00:00 7.3 3 Sudeste 5 Sudeste 0.2 -- -- 95
2019-01-18 18:00:00 8.1 0 Calma 5 Sudoeste 0.4 -- -- 92
2019-01-18 17:00:00 9.2 0 Calma 5 Sur 0 -- -- 81
2019-01-18 16:00:00 9.2 2 Sudeste 5 Sudoeste 0 -- -- 82
2019-01-18 15:00:00 9.1 0 Calma 6 Sudeste 0 -- -- 78
2019-01-18 14:00:00 7.9 0 Calma 5 Sudoeste 0 -- -- 86
2019-01-18 13:00:00 6.8 3 Sudoeste 5 Sudoeste 0 -- -- 90
2019-01-18 12:00:00 5.2 0 Calma 6 Sudoeste 0 -- -- 100
2019-01-18 11:00:00 3.9 0 Calma 3 Oeste 0 -- -- 100
2019-01-18 10:00:00 3.1 0 Calma 10 Oeste 0 -- -- 100
2019-01-18 09:00:00 2.4 0 Calma 3 Noroeste 0 -- -- 100
2019-01-18 08:00:00 2.4 0 Calma 3 Noroeste 0 -- -- 100
2019-01-18 07:00:00 2.5 0 Calma 3 Norte 0 -- -- 100
2019-01-18 06:00:00 2.4 0 Calma 2 Noroeste 0 -- -- 100
2019-01-18 05:00:00 2.4 0 Calma 0 Calma 0 -- -- 100
2019-01-18 04:00:00 2.4 0 Calma 2 Noroeste 0 -- -- 100
2019-01-18 03:00:00 2.5 0 Calma 2 Norte 0 -- -- 100
2019-01-18 02:00:00 2.8 0 Calma 3 Norte 0 -- -- 100
2019-01-18 01:00:00 2.8 0 Calma 4 Noroeste 0 -- -- 99
2019-01-18 00:00:00 3.8 0 Calma 3 Nordeste 0 -- -- 99
2019-01-17 23:00:00 4.7 0 Calma 7 Norte 0 -- -- 99
2019-01-17 22:00:00 5 2 Sudeste 4 Sudeste 0.2 -- -- 99
2019-01-17 21:00:00 5 0 Calma 10 Norte 0.2 -- -- 98
2019-01-17 20:00:00 4.9 0 Calma 3 Noroeste 0 -- -- 98
2019-01-17 19:00:00 5.5 3 Oeste 5 Oeste 0 -- -- 95
2019-01-17 18:00:00 6.9 0 Calma 5 Oeste 0 -- -- 93
2019-01-17 17:00:00 7.3 0 Calma 4 Sudoeste 0 -- -- 91
2019-01-17 16:00:00 7.3 2 Oeste 15 Noroeste 1 -- -- 92
2019-01-17 15:00:00 7.9 6 Noroeste 18 Noroeste 0.6 -- -- 84
2019-01-17 14:00:00 9.7 6 Oeste 21 Oeste 0 -- -- 75
2019-01-17 13:00:00 9.9 9 Oeste 18 Noroeste 0 -- -- 74
2019-01-17 12:00:00 8.9 5 Oeste 10 Oeste 0 -- -- 86
2019-01-17 11:00:00 6.4 0 Calma 5 Norte 0 -- -- 98
2019-01-17 10:00:00 5.7 2 Oeste 12 Noroeste 0 -- -- 98
2019-01-17 09:00:00 5.2 0 Calma 6 Oeste 0 -- -- 99
2019-01-17 08:00:00 5.8 0 Calma 12 Noroeste 0.2 -- -- 98
2019-01-17 07:00:00 6 3 Noroeste 17 Noroeste 0.4 -- -- 97
2019-01-17 06:00:00 6.4 4 Oeste 17 Sudoeste 1 -- -- 99
2019-01-17 05:00:00 6.5 2 Noroeste 13 Noroeste 0 -- -- 99
2019-01-17 04:00:00 6.7 4 Oeste 9 Oeste 1.8 -- -- 100
2019-01-17 03:00:00 6.9 3 Noroeste 10 Oeste 0.4 -- -- 99
2019-01-17 02:00:00 7 3 Oeste 11 Noroeste 1.4 -- -- 98
2019-01-17 01:00:00 7.6 5 Oeste 12 Noroeste 0.6 -- -- 98
2019-01-17 00:00:00 8 3 Noroeste 11 Oeste 1.6 -- -- 99
2019-01-16 23:00:00 8 4 Oeste 10 Noroeste 0.4 -- -- 97
2019-01-16 22:00:00 8.6 4 Oeste 12 Noroeste 0 -- -- 92
2019-01-16 21:00:00 8.4 0 Calma 3 Sur 0 -- -- 93
2019-01-16 20:00:00 8.9 0 Calma 10 Norte 0 -- -- 92
2019-01-16 19:00:00 9.5 7 Norte 14 Nordeste 0 -- -- 90
2019-01-16 18:00:00 10.7 0 Calma 15 Nordeste 0 -- -- 82
2019-01-16 17:00:00 12 5 Norte 14 Noroeste 0 -- -- 73
2019-01-16 16:00:00 12.9 8 Oeste 18 Oeste 0 -- -- 63
2019-01-16 15:00:00 13.4 6 Oeste 16 Oeste 0 -- -- 64
2019-01-16 14:00:00 13 6 Sudoeste 16 Oeste 0 -- -- 68
2019-01-16 13:00:00 10.6 3 Sudeste 6 Sur 0 -- -- 80